createdAt,value
2022-10-18T00:00:50.161Z,101516.72
2022-10-18T00:03:17.001Z,101511.56
2022-10-18T00:05:44.065Z,101522.13
2022-10-18T00:08:11.091Z,101534.50
2022-10-18T00:10:37.949Z,101540.69
2022-10-18T00:13:04.845Z,101544.25
2022-10-18T00:15:31.832Z,101552.22
2022-10-18T00:17:58.651Z,101549.56
2022-10-18T00:20:26.027Z,101554.03
2022-10-18T00:22:52.889Z,101546.25
2022-10-18T00:25:19.945Z,101560.31
2022-10-18T00:27:46.905Z,101558.59
2022-10-18T00:30:15.117Z,101561.22
2022-10-18T00:32:42.784Z,101565.66
2022-10-18T00:35:09.716Z,101571.91
2022-10-18T00:37:36.547Z,101574.56
2022-10-18T00:40:04.760Z,101590.47
2022-10-18T00:42:34.043Z,101599.38
2022-10-18T00:45:03.169Z,101605.50
2022-10-18T00:47:31.896Z,101616.09
2022-10-18T00:50:03.049Z,101624.13
2022-10-18T00:52:33.816Z,101625.00
2022-10-18T00:55:01.155Z,101627.69
2022-10-18T00:57:28.422Z,101638.28
2022-10-18T00:59:55.498Z,101643.56
2022-10-18T01:02:22.978Z,101638.41
2022-10-18T01:04:49.842Z,101648.94
2022-10-18T01:07:42.039Z,101661.31
2022-10-18T01:10:36.035Z,101663.03
2022-10-18T01:13:02.822Z,101669.25
2022-10-18T01:15:34.299Z,101675.47
2022-10-18T01:18:19.348Z,101682.56
2022-10-18T01:20:57.931Z,101683.47
2022-10-18T01:23:55.022Z,101694.16
2022-10-18T01:26:58.735Z,101699.50
2022-10-18T01:30:10.604Z,101711.84
2022-10-18T01:32:46.984Z,101720.75
2022-10-18T01:35:22.905Z,101726.03
2022-10-18T01:37:52.838Z,101731.34
2022-10-18T01:40:22.543Z,101728.69
2022-10-18T01:42:50.058Z,101726.94
2022-10-18T01:45:19.256Z,101732.25
2022-10-18T01:47:47.494Z,101734.03
2022-10-18T01:50:14.543Z,101735.81
2022-10-18T01:52:49.507Z,101747.38
2022-10-18T01:55:16.404Z,101761.47
2022-10-18T01:57:58.744Z,101760.69
2022-10-18T02:00:38.092Z,101768.63
2022-10-18T02:03:27.914Z,101773.84
2022-10-18T02:06:13.974Z,101787.16
2022-10-18T02:08:54.803Z,101799.59
2022-10-18T02:11:22.015Z,101815.53
2022-10-18T02:14:11.146Z,101818.28
2022-10-18T02:16:43.471Z,101824.44
2022-10-18T02:19:20.619Z,101824.56
2022-10-18T02:21:48.701Z,101829.84
2022-10-18T02:24:16.280Z,101829.94
2022-10-18T02:26:43.201Z,101835.22
2022-10-18T02:29:10.376Z,101840.59
2022-10-18T02:31:44.575Z,101851.19
2022-10-18T02:34:21.799Z,101856.50
2022-10-18T02:36:54.269Z,101855.66
2022-10-18T02:39:34.831Z,101868.88
2022-10-18T02:42:06.970Z,101877.69
2022-10-18T02:44:35.422Z,101883.06
2022-10-18T02:47:02.524Z,101895.44
2022-10-18T02:49:29.499Z,101890.31
2022-10-18T02:51:56.310Z,101893.75
2022-10-18T02:54:24.136Z,101903.47
2022-10-18T02:56:51.404Z,101914.91
2022-10-18T02:59:18.362Z,101923.75
2022-10-18T03:01:45.239Z,101918.47
2022-10-18T03:04:12.201Z,101922.06
2022-10-18T03:06:39.064Z,101915.06
2022-10-18T03:09:06.924Z,101917.72
2022-10-18T03:11:33.836Z,101927.50
2022-10-18T03:14:00.985Z,101928.38
2022-10-18T03:16:27.901Z,101945.28
2022-10-18T03:18:54.887Z,101958.44
2022-10-18T03:21:23.094Z,101962.88
2022-10-18T03:23:49.865Z,101954.13
2022-10-18T03:26:16.734Z,101963.75
2022-10-18T03:28:44.776Z,101976.09
2022-10-18T03:31:11.585Z,101992.91
2022-10-18T03:33:38.439Z,101986.84
2022-10-18T03:36:05.515Z,101991.19
2022-10-18T03:38:32.375Z,101995.66
2022-10-18T03:40:59.129Z,102002.66
2022-10-18T03:43:26.032Z,101988.53
2022-10-18T03:45:53.114Z,101996.53
2022-10-18T03:48:20.032Z,102018.53
2022-10-18T03:50:47.106Z,102036.25
2022-10-18T03:53:14.013Z,102030.06
2022-10-18T03:55:40.925Z,102022.16
2022-10-18T03:58:07.778Z,102028.38
2022-10-18T04:00:35.061Z,102035.44
2022-10-18T04:03:02.069Z,102028.41
2022-10-18T04:05:31.069Z,102039.00
2022-10-18T04:07:58.544Z,102040.78
2022-10-18T04:10:26.047Z,102046.13
2022-10-18T04:12:53.025Z,102048.84
2022-10-18T04:15:20.135Z,102060.28
2022-10-18T04:17:47.568Z,102063.84
2022-10-18T04:20:14.452Z,102074.38
2022-10-18T04:22:41.335Z,102070.03
2022-10-18T04:25:08.661Z,102077.97
2022-10-18T04:27:36.513Z,102081.50
2022-10-18T04:30:04.389Z,102071.81
2022-10-18T04:32:31.278Z,102079.84
2022-10-18T04:34:58.241Z,102097.53
2022-10-18T04:37:25.072Z,102103.66
2022-10-18T04:39:53.647Z,102103.66
2022-10-18T04:42:21.569Z,102092.28
2022-10-18T04:44:48.534Z,102092.28
2022-10-18T04:47:16.044Z,102102.94
2022-10-18T04:49:43.007Z,102106.47
2022-10-18T04:52:10.203Z,102110.97
2022-10-18T04:54:37.347Z,102111.75
2022-10-18T04:57:04.350Z,102116.25
2022-10-18T04:59:31.233Z,102110.06
2022-10-18T05:01:58.235Z,102115.22
2022-10-18T05:04:26.041Z,102125.78
2022-10-18T05:06:53.135Z,102125.06
2022-10-18T05:09:22.501Z,102139.09
2022-10-18T05:11:49.348Z,102143.50
2022-10-18T05:14:16.366Z,102145.25
2022-10-18T05:16:45.518Z,102144.38
2022-10-18T05:19:12.475Z,102148.69
2022-10-18T05:21:39.302Z,102147.88
2022-10-18T05:24:06.460Z,102155.72
2022-10-18T05:26:33.231Z,102162.72
2022-10-18T05:29:00.094Z,102168.84
2022-10-18T05:31:26.993Z,102171.47
2022-10-18T05:33:53.803Z,102186.44
2022-10-18T05:36:20.737Z,102185.53
2022-10-18T05:38:48.569Z,102181.97
2022-10-18T05:41:15.430Z,102190.75
2022-10-18T05:43:42.447Z,102196.88
2022-10-18T05:46:14.582Z,102197.75
2022-10-18T05:48:43.490Z,102199.50
2022-10-18T05:51:10.495Z,102195.00
2022-10-18T05:53:38.221Z,102198.56
2022-10-18T05:56:06.784Z,102202.94
2022-10-18T05:58:34.496Z,102205.59
2022-10-18T06:01:02.230Z,102200.28
2022-10-18T06:03:31.018Z,102202.06
2022-10-18T06:06:01.597Z,102202.94
2022-10-18T06:08:28.560Z,102199.50
2022-10-18T06:10:55.632Z,102215.38
2022-10-18T06:13:22.721Z,102224.09
2022-10-18T06:15:49.887Z,102229.41
2022-10-18T06:18:16.921Z,102230.28
2022-10-18T06:20:43.771Z,102222.34
2022-10-18T06:23:10.655Z,102216.16
2022-10-18T06:25:37.511Z,102232.06
2022-10-18T06:28:07.965Z,102244.28
2022-10-18T06:30:37.539Z,102242.91
2022-10-18T06:33:04.549Z,102245.13
2022-10-18T06:35:31.607Z,102244.19
2022-10-18T06:37:58.410Z,102244.19
2022-10-18T06:40:25.352Z,102252.88
2022-10-18T06:43:00.335Z,102258.19
2022-10-18T06:45:33.636Z,102270.47
2022-10-18T06:48:00.468Z,102256.34
2022-10-18T06:50:27.419Z,102262.53
2022-10-18T06:52:54.418Z,102272.25
2022-10-18T06:55:21.540Z,102262.59
2022-10-18T06:57:48.405Z,102268.84
2022-10-18T07:00:15.667Z,102264.41
2022-10-18T07:02:42.748Z,102273.28
2022-10-18T07:05:10.100Z,102278.59
2022-10-18T07:07:37.281Z,102285.69
2022-10-18T07:10:04.785Z,102283.06
2022-10-18T07:12:32.455Z,102287.53
2022-10-18T07:14:59.477Z,102298.13
2022-10-18T07:17:27.484Z,102306.06
2022-10-18T07:19:54.325Z,102300.75
2022-10-18T07:22:21.215Z,102314.03
2022-10-18T07:24:48.062Z,102321.09
2022-10-18T07:27:15.059Z,102322.00
2022-10-18T07:29:42.056Z,102328.97
2022-10-18T07:32:08.941Z,102340.50
2022-10-18T07:34:35.974Z,102347.56
2022-10-18T07:37:03.105Z,102354.63
2022-10-18T07:39:29.984Z,102354.56
2022-10-18T07:41:56.896Z,102373.06
2022-10-18T07:44:23.991Z,102368.72
2022-10-18T07:46:51.112Z,102382.81
2022-10-18T07:49:18.383Z,102381.94
2022-10-18T07:51:45.365Z,102388.13
2022-10-18T07:54:12.856Z,102396.06
2022-10-18T07:56:39.995Z,102407.50
2022-10-18T07:59:07.353Z,102411.03
2022-10-18T08:01:34.824Z,102418.09
2022-10-18T08:04:06.303Z,102418.03
2022-10-18T08:06:35.011Z,102420.59
2022-10-18T08:09:02.377Z,102437.28
2022-10-18T08:11:29.415Z,102439.84
2022-10-18T08:13:56.491Z,102441.53
2022-10-18T08:16:26.683Z,102438.00
2022-10-18T08:18:54.642Z,102451.16
2022-10-18T08:21:22.089Z,102452.03
2022-10-18T08:23:49.801Z,102464.31
2022-10-18T08:26:19.867Z,102467.84
2022-10-18T08:28:53.948Z,102465.13
2022-10-18T08:31:26.044Z,102472.19
2022-10-18T08:33:55.683Z,102472.19
2022-10-18T08:36:22.799Z,102477.47
2022-10-18T08:38:49.848Z,102482.69
2022-10-18T08:41:33.824Z,102488.78
2022-10-18T08:44:24.373Z,102495.81
2022-10-18T08:46:58.656Z,102509.88
2022-10-18T08:49:36.942Z,102517.78
2022-10-18T08:52:11.268Z,102523.91
2022-10-18T08:54:42.280Z,102539.72
2022-10-18T08:57:16.092Z,102541.47
2022-10-18T08:59:44.399Z,102537.91
2022-10-18T09:02:20.916Z,102546.69
2022-10-18T09:05:28.481Z,102539.59
2022-10-18T09:08:13.912Z,102537.81
2022-10-18T09:13:41.039Z,102544.81
2022-10-18T09:16:28.778Z,102539.56
2022-10-18T09:19:14.705Z,102535.09
2022-10-18T09:21:56.105Z,102536.84
2022-10-18T09:24:34.978Z,102542.09
2022-10-18T09:27:09.848Z,102542.94
2022-10-18T09:29:38.327Z,102548.16
2022-10-18T09:32:14.854Z,102553.50
2022-10-18T09:34:54.055Z,102559.63
2022-10-18T09:37:23.244Z,102558.75
2022-10-18T09:39:52.237Z,102560.50
2022-10-18T09:42:29.164Z,102566.63
2022-10-18T09:45:01.477Z,102558.69
2022-10-18T09:47:35.259Z,102557.75
2022-10-18T09:50:25.926Z,102570.09
2022-10-18T09:53:18.665Z,102569.28
2022-10-18T09:55:57.714Z,102574.56
2022-10-18T09:58:26.385Z,102572.66
2022-10-18T10:00:54.039Z,102569.00
2022-10-18T10:03:21.291Z,102570.69
2022-10-18T10:06:04.025Z,102569.66
2022-10-18T10:08:35.672Z,102569.63
2022-10-18T10:11:02.974Z,102580.25
2022-10-18T10:13:30.252Z,102586.47
2022-10-18T10:16:01.643Z,102576.91
2022-10-18T10:18:40.834Z,102582.13
2022-10-18T10:21:14.854Z,102585.63
2022-10-18T10:23:55.253Z,102590.09
2022-10-18T10:26:30.464Z,102593.56
2022-10-18T10:28:57.496Z,102595.31
2022-10-18T10:31:29.873Z,102595.16
2022-10-18T10:34:06.059Z,102611.84
2022-10-18T10:36:34.522Z,102614.50
2022-10-18T10:39:06.492Z,102616.19
2022-10-18T10:41:34.187Z,102624.00
2022-10-18T10:44:04.623Z,102630.16
2022-10-18T10:46:37.985Z,102631.00
2022-10-18T10:49:35.089Z,102627.41
2022-10-18T10:52:08.594Z,102640.63
2022-10-18T10:54:50.327Z,102646.78
2022-10-18T10:57:25.257Z,102644.91
2022-10-18T10:59:58.531Z,102643.09
2022-10-18T11:02:34.381Z,102635.09
2022-10-18T11:05:24.897Z,102639.53
2022-10-18T11:07:57.081Z,102642.16
2022-10-18T11:10:28.667Z,102635.00
2022-10-18T11:13:05.685Z,102636.75
2022-10-18T11:15:53.445Z,102636.72
2022-10-18T11:18:30.531Z,102639.31
2022-10-18T11:21:28.321Z,102650.75
2022-10-18T11:23:55.588Z,102645.44
2022-10-18T11:26:31.269Z,102641.94
2022-10-18T11:29:09.624Z,102643.63
2022-10-18T11:31:47.870Z,102654.22
2022-10-18T11:34:33.566Z,102663.84
2022-10-18T11:37:31.069Z,102659.47
2022-10-18T11:40:09.658Z,102654.13
2022-10-18T11:43:05.617Z,102647.91
2022-10-18T11:46:11.988Z,102649.66
2022-10-18T11:48:44.502Z,102656.72
2022-10-18T11:51:56.043Z,102652.25
2022-10-18T11:54:41.926Z,102649.59
2022-10-18T11:57:34.246Z,102649.53
2022-10-18T12:00:24.834Z,102645.19
2022-10-18T12:03:02.658Z,102645.19
2022-10-18T12:05:31.499Z,102646.06
2022-10-18T12:08:30.828Z,102636.28
2022-10-18T12:11:05.857Z,102636.28
2022-10-18T12:13:59.774Z,102635.34
2022-10-18T12:16:50.632Z,102636.19
2022-10-18T12:19:27.227Z,102631.72
2022-10-18T12:22:03.324Z,102632.59
2022-10-18T12:24:32.745Z,102642.31
2022-10-18T12:27:01.832Z,102637.03
2022-10-18T12:29:50.223Z,102646.66
2022-10-18T12:32:25.341Z,102644.88
2022-10-18T12:34:58.325Z,102645.75
2022-10-18T12:37:32.456Z,102648.47
2022-10-18T12:40:15.709Z,102650.09
2022-10-18T12:42:48.526Z,102651.78
2022-10-18T12:45:28.566Z,102653.47
2022-10-18T12:48:00.435Z,102645.44
2022-10-18T12:50:35.399Z,102646.31
2022-10-18T12:53:16.089Z,102645.38
2022-10-18T12:55:45.988Z,102646.25
2022-10-18T12:58:16.021Z,102652.34
2022-10-18T13:00:42.891Z,102646.16
2022-10-18T13:03:12.662Z,102638.13
2022-10-18T13:05:52.855Z,102635.47
2022-10-18T13:08:30.563Z,102637.16
2022-10-18T13:11:12.602Z,102640.56
2022-10-18T13:14:11.708Z,102648.47
2022-10-18T13:16:58.708Z,102647.59
2022-10-18T13:20:02.851Z,102644.91
2022-10-18T13:22:49.161Z,102651.84
2022-10-18T13:25:28.839Z,102654.44
2022-10-18T13:28:04.712Z,102645.59
2022-10-18T13:31:10.238Z,102650.81
2022-10-18T13:33:42.072Z,102648.97
2022-10-18T13:36:22.638Z,102644.53
2022-10-18T13:38:57.978Z,102644.47
2022-10-18T13:41:47.136Z,102634.81
2022-10-18T13:44:32.130Z,102652.44
2022-10-18T13:46:58.988Z,102648.06
2022-10-18T13:49:44.222Z,102651.56
2022-10-18T13:52:47.262Z,102651.63
2022-10-18T13:55:26.360Z,102642.78
2022-10-18T13:58:14.570Z,102648.19
2022-10-18T14:01:15.025Z,102651.84
2022-10-18T14:04:03.624Z,102655.31
2022-10-18T14:06:44.594Z,102656.19
2022-10-18T14:09:46.052Z,102654.41
2022-10-18T14:12:23.604Z,102665.88
2022-10-18T14:15:03.047Z,102658.94
2022-10-18T14:17:46.949Z,102646.72
2022-10-18T14:20:29.776Z,102653.97
2022-10-18T14:23:15.712Z,102648.84
2022-10-18T14:25:43.614Z,102653.22
2022-10-18T14:28:31.442Z,102645.09
2022-10-18T14:31:09.640Z,102652.09
2022-10-18T14:33:45.539Z,102658.22
2022-10-18T14:36:21.471Z,102658.22
2022-10-18T14:38:53.465Z,102665.28
2022-10-18T14:41:20.387Z,102664.38
2022-10-18T14:43:48.713Z,102658.25
2022-10-18T14:46:28.113Z,102661.78
2022-10-18T14:49:04.635Z,102659.19
2022-10-18T14:51:35.953Z,102661.84
2022-10-18T14:54:03.446Z,102655.75
2022-10-18T14:56:32.924Z,102658.31
2022-10-18T14:59:05.659Z,102660.00
2022-10-18T15:01:33.304Z,102655.56
2022-10-18T15:04:05.862Z,102655.50
2022-10-18T15:06:33.822Z,102651.94
2022-10-18T15:09:04.733Z,102647.59
2022-10-18T15:11:32.235Z,102652.81
2022-10-18T15:14:07.081Z,102647.53
2022-10-18T15:16:34.425Z,102646.56
2022-10-18T15:19:05.942Z,102657.19
2022-10-18T15:21:35.870Z,102664.25
2022-10-18T15:24:30.437Z,102665.16
2022-10-18T15:27:09.731Z,102666.00
2022-10-18T15:29:38.081Z,102668.59
2022-10-18T15:32:14.271Z,102671.19
2022-10-18T15:34:41.334Z,102666.72
2022-10-18T15:37:32.995Z,102669.22
2022-10-18T15:40:21.735Z,102669.94
2022-10-18T15:42:56.971Z,102676.13
2022-10-18T15:45:23.906Z,102676.03
2022-10-18T15:48:20.079Z,102675.88
2022-10-18T15:50:50.172Z,102676.44
2022-10-18T15:53:23.256Z,102672.81
2022-10-18T15:56:06.986Z,102684.13
2022-10-18T15:58:39.671Z,102684.94
2022-10-18T16:01:15.063Z,102681.38
2022-10-18T16:03:43.040Z,102679.53
2022-10-18T16:06:13.433Z,102679.53
2022-10-18T16:08:45.835Z,102682.00
2022-10-18T16:11:22.147Z,102676.63
2022-10-18T16:13:49.262Z,102682.50
2022-10-18T16:16:22.347Z,102680.56
2022-10-18T16:18:50.307Z,102678.94
2022-10-18T16:21:20.978Z,102669.25
2022-10-18T16:23:49.695Z,102664.72
2022-10-18T16:26:17.898Z,102666.31
2022-10-18T16:28:45.482Z,102660.81
2022-10-18T16:31:17.818Z,102672.22
2022-10-18T16:33:45.714Z,102683.59
2022-10-18T16:36:15.656Z,102672.88
2022-10-18T16:38:43.416Z,102676.28
2022-10-18T16:41:10.836Z,102674.41
2022-10-18T16:43:38.661Z,102669.91
2022-10-18T16:46:07.317Z,102672.47
2022-10-18T16:48:34.566Z,102667.25
2022-10-18T16:51:02.402Z,102661.06
2022-10-18T16:53:29.536Z,102665.50
2022-10-18T16:55:59.267Z,102675.22
2022-10-18T16:58:28.181Z,102670.91
2022-10-18T17:00:55.771Z,102665.50
2022-10-18T17:03:23.114Z,102671.59
2022-10-18T17:05:50.501Z,102668.84
2022-10-18T17:08:21.518Z,102674.06
2022-10-18T17:10:50.573Z,102688.13
2022-10-18T17:13:17.722Z,102697.81
2022-10-18T17:15:45.200Z,102683.47
2022-10-18T17:18:14.698Z,102693.06
2022-10-18T17:20:42.826Z,102695.56
2022-10-18T17:23:09.925Z,102693.59
2022-10-18T17:25:46.321Z,102694.28
2022-10-18T17:28:25.079Z,102694.09
2022-10-18T17:30:52.599Z,102698.50
2022-10-18T17:33:19.781Z,102707.22
2022-10-18T17:35:48.847Z,102713.31
2022-10-18T17:38:16.103Z,102716.75
2022-10-18T17:40:44.150Z,102718.41
2022-10-18T17:43:13.757Z,102728.00
2022-10-18T17:45:54.243Z,102713.78
2022-10-18T17:48:21.393Z,102735.72
2022-10-18T17:50:48.846Z,102735.63
2022-10-18T17:53:17.080Z,102733.72
2022-10-18T17:55:44.274Z,102738.97
2022-10-18T17:58:11.889Z,102738.88
2022-10-18T18:00:40.079Z,102735.22
2022-10-18T18:03:08.254Z,102740.44
2022-10-18T18:05:35.290Z,102740.50
2022-10-18T18:08:04.511Z,102739.56
2022-10-18T18:10:36.010Z,102747.53
2022-10-18T18:13:03.818Z,102748.41
2022-10-18T18:15:31.611Z,102751.03
2022-10-18T18:17:58.635Z,102746.56
2022-10-18T18:20:27.062Z,102750.06
2022-10-18T18:22:54.105Z,102744.66
2022-10-18T18:25:21.219Z,102750.69
2022-10-18T18:27:48.361Z,102752.31
2022-10-18T18:30:18.250Z,102754.03
2022-10-18T18:32:45.629Z,102757.53
2022-10-18T18:35:13.053Z,102755.66
2022-10-18T18:37:40.167Z,102757.16
2022-10-18T18:40:07.858Z,102751.63
2022-10-18T18:42:35.593Z,102750.63
2022-10-18T18:45:03.043Z,102750.53
2022-10-18T18:47:30.331Z,102748.59
2022-10-18T18:49:57.563Z,102739.59
2022-10-18T18:52:24.661Z,102744.00
2022-10-18T18:54:51.983Z,102748.31
2022-10-18T18:57:20.231Z,102748.31
2022-10-18T18:59:47.470Z,102753.47
2022-10-18T19:02:14.526Z,102742.81
2022-10-18T19:04:41.885Z,102756.13
2022-10-18T19:07:08.995Z,102746.97
2022-10-18T19:09:38.621Z,102746.97
2022-10-18T19:12:06.329Z,102745.25
2022-10-18T19:14:33.539Z,102750.47
2022-10-18T19:17:01.992Z,102751.25
2022-10-18T19:19:31.503Z,102752.16
2022-10-18T19:22:01.307Z,102759.25
2022-10-18T19:24:50.323Z,102756.41
2022-10-18T19:27:17.361Z,102758.25
2022-10-18T19:29:46.429Z,102756.31
2022-10-18T19:32:15.503Z,102762.59
2022-10-18T19:34:46.839Z,102757.38
2022-10-18T19:37:16.163Z,102760.13
2022-10-18T19:39:43.873Z,102758.50
2022-10-18T19:42:16.001Z,102755.03
2022-10-18T19:44:46.267Z,102757.81
2022-10-18T19:47:14.762Z,102759.34
2022-10-18T19:49:46.102Z,102762.81
2022-10-18T19:52:13.423Z,102762.81
2022-10-18T19:54:44.337Z,102769.03
2022-10-18T19:57:11.578Z,102783.25
2022-10-18T20:02:26.441Z,102789.56
2022-10-18T20:04:53.665Z,102786.09
2022-10-18T20:07:21.047Z,102783.53
2022-10-18T20:09:50.659Z,102793.31
2022-10-18T20:12:17.774Z,102791.53
2022-10-18T20:14:45.046Z,102792.63
2022-10-18T20:17:13.357Z,102798.81
2022-10-18T20:19:41.386Z,102795.38
2022-10-18T20:22:08.620Z,102799.03
2022-10-18T20:24:35.783Z,102793.97
2022-10-18T20:27:02.974Z,102795.94
2022-10-18T20:29:31.245Z,102789.09
2022-10-18T20:31:59.114Z,102788.47
2022-10-18T20:34:26.614Z,102790.66
2022-10-18T20:36:56.850Z,102788.47
2022-10-18T20:39:24.579Z,102785.22
2022-10-18T20:41:51.763Z,102795.16
2022-10-18T20:44:21.146Z,102786.53
2022-10-18T20:46:48.258Z,102797.44
2022-10-18T20:49:16.824Z,102798.44
2022-10-18T20:51:43.933Z,102795.97
2022-10-18T20:54:12.130Z,102795.16
2022-10-18T20:56:39.969Z,102791.88
2022-10-18T20:59:10.189Z,102786.78
2022-10-18T21:01:39.026Z,102783.25
2022-10-18T21:04:09.202Z,102781.66
2022-10-18T21:06:40.693Z,102781.75
2022-10-18T21:09:10.672Z,102786.34
2022-10-18T21:11:41.094Z,102793.56
2022-10-18T21:14:13.581Z,102794.63
2022-10-18T21:16:41.649Z,102791.13
2022-10-18T21:19:12.299Z,102794.81
2022-10-18T21:21:43.051Z,102792.22
2022-10-18T21:24:11.243Z,102798.59
2022-10-18T21:26:38.206Z,102798.69
2022-10-18T21:29:06.597Z,102785.53
2022-10-18T21:31:36.578Z,102784.69
2022-10-18T21:34:06.349Z,102776.03
2022-10-18T21:36:36.630Z,102773.47
2022-10-18T21:39:12.262Z,102772.59
2022-10-18T21:41:39.238Z,102778.06
2022-10-18T21:44:08.377Z,102779.03
2022-10-18T21:46:39.730Z,102771.19
2022-10-18T21:49:07.994Z,102763.31
2022-10-18T21:51:35.853Z,102760.72
2022-10-18T21:54:02.740Z,102751.03
2022-10-18T21:56:32.913Z,102738.81
2022-10-18T21:59:00.220Z,102739.78
2022-10-18T22:01:33.377Z,102737.19
2022-10-18T22:04:02.413Z,102741.69
2022-10-18T22:06:32.652Z,102740.88
2022-10-18T22:09:06.542Z,102737.44
2022-10-18T22:11:37.011Z,102735.69
2022-10-18T22:14:03.937Z,102738.50
2022-10-18T22:16:30.823Z,102745.66
2022-10-18T22:19:00.406Z,102743.00
2022-10-18T22:21:28.187Z,102743.97
2022-10-18T22:23:59.149Z,102743.22
2022-10-18T22:26:32.559Z,102747.66
2022-10-18T22:29:08.692Z,102742.44
2022-10-18T22:31:38.995Z,102738.03
2022-10-18T22:34:08.890Z,102731.91
2022-10-18T22:36:36.002Z,102735.53
2022-10-18T22:39:03.872Z,102730.28
2022-10-18T22:41:30.805Z,102728.53
2022-10-18T22:43:59.817Z,102718.88
2022-10-18T22:46:29.927Z,102712.78
2022-10-18T22:48:56.843Z,102714.63
2022-10-18T22:51:24.155Z,102714.63
2022-10-18T22:53:51.195Z,102714.69
2022-10-18T22:56:20.563Z,102716.47
2022-10-18T22:58:48.526Z,102716.53
2022-10-18T23:01:20.784Z,102721.84
2022-10-18T23:03:52.071Z,102728.09
2022-10-18T23:06:26.569Z,102735.25
2022-10-18T23:08:55.110Z,102729.06
2022-10-18T23:11:22.378Z,102722.00
2022-10-18T23:13:49.343Z,102721.19
2022-10-18T23:16:17.412Z,102722.97
2022-10-18T23:18:44.292Z,102718.63
2022-10-18T23:21:13.728Z,102718.63
2022-10-18T23:23:42.647Z,102725.75
2022-10-18T23:26:18.381Z,102726.66
2022-10-18T23:28:49.308Z,102717.91
2022-10-18T23:31:28.849Z,102718.78
2022-10-18T23:33:58.369Z,102725.06
2022-10-18T23:36:26.405Z,102727.69
2022-10-18T23:38:54.140Z,102718.88
2022-10-18T23:41:21.285Z,102716.22
2022-10-18T23:43:48.204Z,102714.59
2022-10-18T23:46:17.114Z,102716.41
2022-10-18T23:48:44.722Z,102716.41
2022-10-18T23:51:12.003Z,102712.03
2022-10-18T23:53:39.181Z,102712.91
2022-10-18T23:56:09.178Z,102706.81
2022-10-18T23:58:36.872Z,102708.63
